sensor_id;sensor_type;location;lat;lon;timestamp;temperature;humidity
26947;DHT22;14501;52.282;10.560;2022-10-30T00:00:12;14.70;99.90
26947;DHT22;14501;52.282;10.560;2022-10-30T00:02:38;14.70;99.90
26947;DHT22;14501;52.282;10.560;2022-10-30T00:05:05;14.70;99.90
26947;DHT22;14501;52.282;10.560;2022-10-30T00:07:30;14.70;99.90
26947;DHT22;14501;52.282;10.560;2022-10-30T00:09:56;14.70;99.90
26947;DHT22;14501;52.282;10.560;2022-10-30T00:12:22;14.70;99.90
26947;DHT22;14501;52.282;10.560;2022-10-30T00:14:47;14.70;99.90
26947;DHT22;14501;52.282;10.560;2022-10-30T00:17:13;14.70;99.90
26947;DHT22;14501;52.282;10.560;2022-10-30T00:19:38;14.70;99.90
26947;DHT22;14501;52.282;10.560;2022-10-30T00:22:04;14.60;99.90
26947;DHT22;14501;52.282;10.560;2022-10-30T00:24:30;14.60;99.90
26947;DHT22;14501;52.282;10.560;2022-10-30T00:26:55;14.60;99.90
26947;DHT22;14501;52.282;10.560;2022-10-30T00:29:24;14.50;99.90
26947;DHT22;14501;52.282;10.560;2022-10-30T00:31:51;14.60;99.90
26947;DHT22;14501;52.282;10.560;2022-10-30T00:34:17;14.60;99.90
26947;DHT22;14501;52.282;10.560;2022-10-30T00:36:43;14.60;99.90
26947;DHT22;14501;52.282;10.560;2022-10-30T00:39:09;14.50;99.90
26947;DHT22;14501;52.282;10.560;2022-10-30T00:41:35;14.50;99.90
26947;DHT22;14501;52.282;10.560;2022-10-30T00:44:01;14.50;99.90
26947;DHT22;14501;52.282;10.560;2022-10-30T00:46:30;14.40;99.90
26947;DHT22;14501;52.282;10.560;2022-10-30T00:49:13;14.40;99.90
26947;DHT22;14501;52.282;10.560;2022-10-30T00:51:46;14.40;99.90
26947;DHT22;14501;52.282;10.560;2022-10-30T00:54:15;14.50;99.90
26947;DHT22;14501;52.282;10.560;2022-10-30T00:56:42;14.60;99.90
26947;DHT22;14501;52.282;10.560;2022-10-30T00:59:12;14.60;99.90
26947;DHT22;14501;52.282;10.560;2022-10-30T01:01:42;14.70;99.90
26947;DHT22;14501;52.282;10.560;2022-10-30T01:04:10;14.80;99.90
26947;DHT22;14501;52.282;10.560;2022-10-30T01:06:38;14.80;99.90
26947;DHT22;14501;52.282;10.560;2022-10-30T01:09:05;14.90;99.90
26947;DHT22;14501;52.282;10.560;2022-10-30T01:11:31;14.90;99.90
26947;DHT22;14501;52.282;10.560;2022-10-30T01:14:00;14.90;99.90
26947;DHT22;14501;52.282;10.560;2022-10-30T01:24:59;15.00;99.90
26947;DHT22;14501;52.282;10.560;2022-10-30T01:33:54;14.90;99.90
26947;DHT22;14501;52.282;10.560;2022-10-30T01:41:20;14.70;99.90
26947;DHT22;14501;52.282;10.560;2022-10-30T01:43:48;14.70;99.90
26947;DHT22;14501;52.282;10.560;2022-10-30T01:49:12;14.50;99.90
26947;DHT22;14501;52.282;10.560;2022-10-30T01:55:21;14.40;99.90
26947;DHT22;14501;52.282;10.560;2022-10-30T01:57:38;14.30;99.90
26947;DHT22;14501;52.282;10.560;2022-10-30T02:02:32;14.20;99.90
26947;DHT22;14501;52.282;10.560;2022-10-30T02:04:58;14.10;99.90
26947;DHT22;14501;52.282;10.560;2022-10-30T02:07:24;13.90;99.90
26947;DHT22;14501;52.282;10.560;2022-10-30T02:09:51;13.80;99.90
26947;DHT22;14501;52.282;10.560;2022-10-30T02:12:18;13.80;99.90
26947;DHT22;14501;52.282;10.560;2022-10-30T02:14:47;13.70;99.90
26947;DHT22;14501;52.282;10.560;2022-10-30T02:17:14;13.40;99.90
26947;DHT22;14501;52.282;10.560;2022-10-30T02:19:40;13.50;99.90
26947;DHT22;14501;52.282;10.560;2022-10-30T02:22:05;13.40;99.90
26947;DHT22;14501;52.282;10.560;2022-10-30T02:24:31;13.30;99.90
26947;DHT22;14501;52.282;10.560;2022-10-30T02:26:57;13.10;99.90
26947;DHT22;14501;52.282;10.560;2022-10-30T02:29:23;13.20;99.90
26947;DHT22;14501;52.282;10.560;2022-10-30T02:31:48;13.10;99.90
26947;DHT22;14501;52.282;10.560;2022-10-30T02:34:14;13.00;99.90
26947;DHT22;14501;52.282;10.560;2022-10-30T02:36:40;13.00;99.90
26947;DHT22;14501;52.282;10.560;2022-10-30T02:39:06;12.90;99.90
26947;DHT22;14501;52.282;10.560;2022-10-30T02:41:32;12.80;99.90
26947;DHT22;14501;52.282;10.560;2022-10-30T02:43:57;12.80;99.90
26947;DHT22;14501;52.282;10.560;2022-10-30T02:46:23;12.70;99.90
26947;DHT22;14501;52.282;10.560;2022-10-30T02:48:49;12.60;99.90
26947;DHT22;14501;52.282;10.560;2022-10-30T02:51:14;12.60;99.90
26947;DHT22;14501;52.282;10.560;2022-10-30T02:53:40;12.60;99.90
26947;DHT22;14501;52.282;10.560;2022-10-30T02:56:08;12.50;99.90
26947;DHT22;14501;52.282;10.560;2022-10-30T02:58:35;12.40;99.90
26947;DHT22;14501;52.282;10.560;2022-10-30T03:01:17;11.10;99.90
26947;DHT22;14501;52.282;10.560;2022-10-30T03:03:44;12.30;99.90
26947;DHT22;14501;52.282;10.560;2022-10-30T03:06:12;12.30;99.90
26947;DHT22;14501;52.282;10.560;2022-10-30T03:08:40;12.20;99.90
26947;DHT22;14501;52.282;10.560;2022-10-30T03:11:09;12.20;99.90
26947;DHT22;14501;52.282;10.560;2022-10-30T03:13:35;12.10;99.90
26947;DHT22;14501;52.282;10.560;2022-10-30T03:16:04;12.10;99.90
26947;DHT22;14501;52.282;10.560;2022-10-30T03:18:30;12.00;99.90
26947;DHT22;14501;52.282;10.560;2022-10-30T03:20:57;12.00;99.90
26947;DHT22;14501;52.282;10.560;2022-10-30T03:23:23;12.00;99.90
26947;DHT22;14501;52.282;10.560;2022-10-30T03:25:52;12.00;99.90
26947;DHT22;14501;52.282;10.560;2022-10-30T03:28:18;11.80;99.90
26947;DHT22;14501;52.282;10.560;2022-10-30T03:30:44;11.80;99.90
26947;DHT22;14501;52.282;10.560;2022-10-30T03:33:10;11.70;99.90
26947;DHT22;14501;52.282;10.560;2022-10-30T03:35:35;11.70;99.90
26947;DHT22;14501;52.282;10.560;2022-10-30T03:38:01;11.60;99.90
26947;DHT22;14501;52.282;10.560;2022-10-30T03:40:26;11.80;99.90
26947;DHT22;14501;52.282;10.560;2022-10-30T03:42:52;11.60;99.90
26947;DHT22;14501;52.282;10.560;2022-10-30T03:45:18;11.60;99.90
26947;DHT22;14501;52.282;10.560;2022-10-30T03:47:43;11.60;99.90
26947;DHT22;14501;52.282;10.560;2022-10-30T03:50:09;11.70;99.90
26947;DHT22;14501;52.282;10.560;2022-10-30T03:52:34;11.60;99.90
26947;DHT22;14501;52.282;10.560;2022-10-30T03:55:00;12.20;99.90
26947;DHT22;14501;52.282;10.560;2022-10-30T03:57:26;11.60;99.90
26947;DHT22;14501;52.282;10.560;2022-10-30T03:59:51;11.60;99.90
26947;DHT22;14501;52.282;10.560;2022-10-30T04:02:17;11.50;99.90
26947;DHT22;14501;52.282;10.560;2022-10-30T04:04:42;11.60;99.90
26947;DHT22;14501;52.282;10.560;2022-10-30T04:07:08;11.50;99.90
26947;DHT22;14501;52.282;10.560;2022-10-30T04:09:33;11.60;99.90
26947;DHT22;14501;52.282;10.560;2022-10-30T04:11:59;11.60;99.90
26947;DHT22;14501;52.282;10.560;2022-10-30T04:14:25;11.50;99.90
26947;DHT22;14501;52.282;10.560;2022-10-30T04:16:50;11.60;99.90
26947;DHT22;14501;52.282;10.560;2022-10-30T04:19:16;11.60;99.90
26947;DHT22;14501;52.282;10.560;2022-10-30T04:21:42;11.90;99.90
26947;DHT22;14501;52.282;10.560;2022-10-30T04:24:08;12.50;99.90
26947;DHT22;14501;52.282;10.560;2022-10-30T04:26:34;11.60;99.90
26947;DHT22;14501;52.282;10.560;2022-10-30T04:28:59;11.60;99.90
26947;DHT22;14501;52.282;10.560;2022-10-30T04:31:25;11.70;99.90
26947;DHT22;14501;52.282;10.560;2022-10-30T04:33:50;11.60;99.90
26947;DHT22;14501;52.282;10.560;2022-10-30T04:36:16;11.70;99.90
26947;DHT22;14501;52.282;10.560;2022-10-30T04:38:42;11.70;99.90
26947;DHT22;14501;52.282;10.560;2022-10-30T04:41:08;11.60;99.90
26947;DHT22;14501;52.282;10.560;2022-10-30T04:43:34;11.60;99.90
26947;DHT22;14501;52.282;10.560;2022-10-30T04:46:03;11.60;99.90
26947;DHT22;14501;52.282;10.560;2022-10-30T04:50:57;11.50;99.90
26947;DHT22;14501;52.282;10.560;2022-10-30T04:53:23;11.90;99.90
26947;DHT22;14501;52.282;10.560;2022-10-30T04:55:52;11.50;99.90
26947;DHT22;14501;52.282;10.560;2022-10-30T04:58:18;11.40;99.90
26947;DHT22;14501;52.282;10.560;2022-10-30T05:00:43;11.50;99.90
26947;DHT22;14501;52.282;10.560;2022-10-30T05:03:17;11.30;99.90
26947;DHT22;14501;52.282;10.560;2022-10-30T05:05:43;11.40;99.90
26947;DHT22;14501;52.282;10.560;2022-10-30T05:08:08;11.20;99.90
26947;DHT22;14501;52.282;10.560;2022-10-30T05:10:35;11.50;99.90
26947;DHT22;14501;52.282;10.560;2022-10-30T05:13:02;11.30;99.90
26947;DHT22;14501;52.282;10.560;2022-10-30T05:15:28;11.10;99.90
26947;DHT22;14501;52.282;10.560;2022-10-30T05:17:54;11.20;99.90
26947;DHT22;14501;52.282;10.560;2022-10-30T05:20:19;11.30;99.90
26947;DHT22;14501;52.282;10.560;2022-10-30T05:22:52;11.40;99.90
26947;DHT22;14501;52.282;10.560;2022-10-30T05:25:17;11.20;99.90
26947;DHT22;14501;52.282;10.560;2022-10-30T05:30:09;11.10;99.90
26947;DHT22;14501;52.282;10.560;2022-10-30T05:32:35;11.10;99.90
26947;DHT22;14501;52.282;10.560;2022-10-30T05:35:00;11.10;99.90
26947;DHT22;14501;52.282;10.560;2022-10-30T05:37:26;11.10;99.90
26947;DHT22;14501;52.282;10.560;2022-10-30T05:39:51;11.10;99.90
26947;DHT22;14501;52.282;10.560;2022-10-30T05:42:17;11.00;99.90
26947;DHT22;14501;52.282;10.560;2022-10-30T05:44:42;11.00;99.90
26947;DHT22;14501;52.282;10.560;2022-10-30T05:47:10;11.20;99.90
26947;DHT22;14501;52.282;10.560;2022-10-30T05:49:35;10.90;99.90
26947;DHT22;14501;52.282;10.560;2022-10-30T05:52:01;10.90;99.90
26947;DHT22;14501;52.282;10.560;2022-10-30T05:54:26;10.90;99.90
26947;DHT22;14501;52.282;10.560;2022-10-30T05:56:52;11.70;99.90
26947;DHT22;14501;52.282;10.560;2022-10-30T05:59:18;10.90;99.90
26947;DHT22;14501;52.282;10.560;2022-10-30T06:01:43;10.90;99.90
26947;DHT22;14501;52.282;10.560;2022-10-30T06:04:09;10.80;99.90
26947;DHT22;14501;52.282;10.560;2022-10-30T06:06:35;10.80;99.90
26947;DHT22;14501;52.282;10.560;2022-10-30T06:09:00;10.90;99.90
26947;DHT22;14501;52.282;10.560;2022-10-30T06:11:26;11.00;99.90
26947;DHT22;14501;52.282;10.560;2022-10-30T06:13:51;10.90;99.90
26947;DHT22;14501;52.282;10.560;2022-10-30T06:16:17;10.90;99.90
26947;DHT22;14501;52.282;10.560;2022-10-30T06:18:42;11.00;99.90
26947;DHT22;14501;52.282;10.560;2022-10-30T06:21:08;11.90;99.90
26947;DHT22;14501;52.282;10.560;2022-10-30T06:23:33;11.10;99.90
26947;DHT22;14501;52.282;10.560;2022-10-30T06:25:59;11.00;99.90
26947;DHT22;14501;52.282;10.560;2022-10-30T06:28:24;11.10;99.90
26947;DHT22;14501;52.282;10.560;2022-10-30T06:30:53;10.90;99.90
26947;DHT22;14501;52.282;10.560;2022-10-30T06:33:18;11.50;99.90
26947;DHT22;14501;52.282;10.560;2022-10-30T06:35:44;11.40;99.90
26947;DHT22;14501;52.282;10.560;2022-10-30T06:38:09;11.30;99.90
26947;DHT22;14501;52.282;10.560;2022-10-30T06:40:36;11.30;99.90
26947;DHT22;14501;52.282;10.560;2022-10-30T06:43:01;11.60;99.90
26947;DHT22;14501;52.282;10.560;2022-10-30T06:45:27;12.10;99.90
26947;DHT22;14501;52.282;10.560;2022-10-30T06:47:53;11.60;99.90
26947;DHT22;14501;52.282;10.560;2022-10-30T06:50:19;11.50;99.90
26947;DHT22;14501;52.282;10.560;2022-10-30T06:52:46;11.60;99.90
26947;DHT22;14501;52.282;10.560;2022-10-30T06:55:12;12.00;99.90
26947;DHT22;14501;52.282;10.560;2022-10-30T07:00:05;11.90;99.90
26947;DHT22;14501;52.282;10.560;2022-10-30T07:02:31;12.00;99.90
26947;DHT22;14501;52.282;10.560;2022-10-30T07:04:57;12.00;99.90
26947;DHT22;14501;52.282;10.560;2022-10-30T07:07:22;12.10;99.90
26947;DHT22;14501;52.282;10.560;2022-10-30T07:09:48;12.20;99.90
26947;DHT22;14501;52.282;10.560;2022-10-30T07:12:13;12.80;99.90
26947;DHT22;14501;52.282;10.560;2022-10-30T07:14:39;12.20;99.90
26947;DHT22;14501;52.282;10.560;2022-10-30T07:17:05;12.60;99.90
26947;DHT22;14501;52.282;10.560;2022-10-30T07:19:31;12.60;99.90
26947;DHT22;14501;52.282;10.560;2022-10-30T07:21:56;12.70;99.90
26947;DHT22;14501;52.282;10.560;2022-10-30T07:24:22;12.70;99.90
26947;DHT22;14501;52.282;10.560;2022-10-30T07:26:47;12.90;99.90
26947;DHT22;14501;52.282;10.560;2022-10-30T07:29:13;13.10;99.90
26947;DHT22;14501;52.282;10.560;2022-10-30T07:31:38;13.10;99.90
26947;DHT22;14501;52.282;10.560;2022-10-30T07:34:04;13.30;99.90
26947;DHT22;14501;52.282;10.560;2022-10-30T07:36:30;13.50;99.90
26947;DHT22;14501;52.282;10.560;2022-10-30T07:38:55;13.60;99.90
26947;DHT22;14501;52.282;10.560;2022-10-30T07:41:21;13.70;99.90
26947;DHT22;14501;52.282;10.560;2022-10-30T07:43:47;13.80;99.90
26947;DHT22;14501;52.282;10.560;2022-10-30T07:46:13;13.90;99.90
26947;DHT22;14501;52.282;10.560;2022-10-30T07:48:39;14.10;99.90
26947;DHT22;14501;52.282;10.560;2022-10-30T07:51:05;14.20;99.90
26947;DHT22;14501;52.282;10.560;2022-10-30T07:53:31;14.30;99.90
26947;DHT22;14501;52.282;10.560;2022-10-30T07:55:57;14.40;99.90
26947;DHT22;14501;52.282;10.560;2022-10-30T07:58:23;14.60;99.90
26947;DHT22;14501;52.282;10.560;2022-10-30T08:03:14;14.80;99.90
26947;DHT22;14501;52.282;10.560;2022-10-30T08:05:40;15.20;99.90
26947;DHT22;14501;52.282;10.560;2022-10-30T08:08:06;16.70;99.90
26947;DHT22;14501;52.282;10.560;2022-10-30T08:10:33;16.90;99.90
26947;DHT22;14501;52.282;10.560;2022-10-30T08:12:58;17.50;99.90
26947;DHT22;14501;52.282;10.560;2022-10-30T08:15:24;18.00;99.90
26947;DHT22;14501;52.282;10.560;2022-10-30T08:17:51;18.60;99.90
26947;DHT22;14501;52.282;10.560;2022-10-30T08:20:18;18.50;99.90
26947;DHT22;14501;52.282;10.560;2022-10-30T08:22:48;18.70;99.90
26947;DHT22;14501;52.282;10.560;2022-10-30T08:25:16;18.80;99.90
26947;DHT22;14501;52.282;10.560;2022-10-30T08:30:15;19.10;99.90
26947;DHT22;14501;52.282;10.560;2022-10-30T08:32:41;19.30;99.90
26947;DHT22;14501;52.282;10.560;2022-10-30T08:35:07;19.50;99.90
26947;DHT22;14501;52.282;10.560;2022-10-30T08:37:32;20.00;99.90
26947;DHT22;14501;52.282;10.560;2022-10-30T08:39:58;21.20;99.90
26947;DHT22;14501;52.282;10.560;2022-10-30T08:42:23;22.90;99.90
26947;DHT22;14501;52.282;10.560;2022-10-30T08:44:49;24.30;99.90
26947;DHT22;14501;52.282;10.560;2022-10-30T08:47:15;25.70;99.90
26947;DHT22;14501;52.282;10.560;2022-10-30T08:49:40;27.10;99.90
26947;DHT22;14501;52.282;10.560;2022-10-30T08:52:09;28.30;99.90
26947;DHT22;14501;52.282;10.560;2022-10-30T08:54:35;29.40;99.90
26947;DHT22;14501;52.282;10.560;2022-10-30T08:57:01;30.10;99.90
26947;DHT22;14501;52.282;10.560;2022-10-30T08:59:26;30.60;99.90
26947;DHT22;14501;52.282;10.560;2022-10-30T09:01:52;31.20;99.10
26947;DHT22;14501;52.282;10.560;2022-10-30T09:04:18;31.20;98.80
26947;DHT22;14501;52.282;10.560;2022-10-30T09:06:43;31.50;97.30
26947;DHT22;14501;52.282;10.560;2022-10-30T09:09:09;31.90;97.30
26947;DHT22;14501;52.282;10.560;2022-10-30T09:11:36;32.60;96.00
26947;DHT22;14501;52.282;10.560;2022-10-30T09:14:01;33.10;96.80
26947;DHT22;14501;52.282;10.560;2022-10-30T09:16:27;33.30;95.20
26947;DHT22;14501;52.282;10.560;2022-10-30T09:18:53;33.70;93.50
26947;DHT22;14501;52.282;10.560;2022-10-30T09:21:18;34.00;93.80
26947;DHT22;14501;52.282;10.560;2022-10-30T09:23:44;34.20;92.10
26947;DHT22;14501;52.282;10.560;2022-10-30T09:26:10;34.30;91.30
26947;DHT22;14501;52.282;10.560;2022-10-30T09:28:36;34.40;90.30
26947;DHT22;14501;52.282;10.560;2022-10-30T09:31:02;34.30;91.00
26947;DHT22;14501;52.282;10.560;2022-10-30T09:33:27;34.30;90.70
26947;DHT22;14501;52.282;10.560;2022-10-30T09:35:53;34.00;90.00
26947;DHT22;14501;52.282;10.560;2022-10-30T09:38:18;33.70;90.80
26947;DHT22;14501;52.282;10.560;2022-10-30T09:47:08;33.60;90.20
26947;DHT22;14501;52.282;10.560;2022-10-30T09:52:39;32.10;90.80
26947;DHT22;14501;52.282;10.560;2022-10-30T09:55:19;31.00;92.30
26947;DHT22;14501;52.282;10.560;2022-10-30T09:58:03;29.60;95.30
26947;DHT22;14501;52.282;10.560;2022-10-30T10:00:39;29.50;95.30
26947;DHT22;14501;52.282;10.560;2022-10-30T10:03:32;28.80;95.20
26947;DHT22;14501;52.282;10.560;2022-10-30T10:06:01;28.20;95.80
26947;DHT22;14501;52.282;10.560;2022-10-30T10:08:30;27.80;97.30
26947;DHT22;14501;52.282;10.560;2022-10-30T10:11:02;27.70;96.60
26947;DHT22;14501;52.282;10.560;2022-10-30T10:13:30;27.40;96.50
26947;DHT22;14501;52.282;10.560;2022-10-30T10:16:17;27.30;96.50
26947;DHT22;14501;52.282;10.560;2022-10-30T10:18:54;27.00;97.20
26947;DHT22;14501;52.282;10.560;2022-10-30T10:21:26;26.90;97.30
26947;DHT22;14501;52.282;10.560;2022-10-30T10:23:58;26.80;98.40
26947;DHT22;14501;52.282;10.560;2022-10-30T10:30:00;26.10;98.20
26947;DHT22;14501;52.282;10.560;2022-10-30T10:45:52;25.30;99.90
26947;DHT22;14501;52.282;10.560;2022-10-30T10:51:05;25.20;99.90
26947;DHT22;14501;52.282;10.560;2022-10-30T10:53:59;24.80;99.90
26947;DHT22;14501;52.282;10.560;2022-10-30T10:56:33;24.50;99.90
26947;DHT22;14501;52.282;10.560;2022-10-30T10:59:03;24.30;99.90
26947;DHT22;14501;52.282;10.560;2022-10-30T11:01:40;24.30;99.90
26947;DHT22;14501;52.282;10.560;2022-10-30T11:04:23;24.40;99.90
26947;DHT22;14501;52.282;10.560;2022-10-30T11:06:52;24.30;99.90
26947;DHT22;14501;52.282;10.560;2022-10-30T11:09:20;24.20;99.90
26947;DHT22;14501;52.282;10.560;2022-10-30T11:11:47;24.30;99.90
26947;DHT22;14501;52.282;10.560;2022-10-30T11:14:22;24.30;99.90
26947;DHT22;14501;52.282;10.560;2022-10-30T11:19:38;24.60;99.90
26947;DHT22;14501;52.282;10.560;2022-10-30T11:22:15;24.50;99.90
26947;DHT22;14501;52.282;10.560;2022-10-30T11:24:41;24.40;99.90
26947;DHT22;14501;52.282;10.560;2022-10-30T11:29:53;24.40;99.90
26947;DHT22;14501;52.282;10.560;2022-10-30T11:32:21;24.50;99.90
26947;DHT22;14501;52.282;10.560;2022-10-30T11:37:36;24.60;99.90
26947;DHT22;14501;52.282;10.560;2022-10-30T11:42:39;24.30;99.90
26947;DHT22;14501;52.282;10.560;2022-10-30T11:45:39;24.30;99.90
26947;DHT22;14501;52.282;10.560;2022-10-30T11:48:22;24.30;99.90
26947;DHT22;14501;52.282;10.560;2022-10-30T11:50:48;24.20;99.90
26947;DHT22;14501;52.282;10.560;2022-10-30T11:53:27;24.30;99.90
26947;DHT22;14501;52.282;10.560;2022-10-30T11:55:56;24.40;99.90
26947;DHT22;14501;52.282;10.560;2022-10-30T11:58:43;24.50;99.90
26947;DHT22;14501;52.282;10.560;2022-10-30T12:01:22;24.50;99.90
26947;DHT22;14501;52.282;10.560;2022-10-30T12:03:49;24.60;99.90
26947;DHT22;14501;52.282;10.560;2022-10-30T12:06:33;24.60;99.90
26947;DHT22;14501;52.282;10.560;2022-10-30T12:09:12;24.80;99.90
26947;DHT22;14501;52.282;10.560;2022-10-30T12:11:39;24.90;99.90
26947;DHT22;14501;52.282;10.560;2022-10-30T12:16:49;24.90;99.90
26947;DHT22;14501;52.282;10.560;2022-10-30T12:19:16;25.00;99.90
26947;DHT22;14501;52.282;10.560;2022-10-30T12:21:53;24.80;99.90
26947;DHT22;14501;52.282;10.560;2022-10-30T12:24:33;24.70;99.90
26947;DHT22;14501;52.282;10.560;2022-10-30T12:27:02;24.60;99.90
26947;DHT22;14501;52.282;10.560;2022-10-30T12:30:02;24.50;99.90
26947;DHT22;14501;52.282;10.560;2022-10-30T12:32:32;24.50;99.90
26947;DHT22;14501;52.282;10.560;2022-10-30T12:35:03;24.50;99.90
26947;DHT22;14501;52.282;10.560;2022-10-30T12:37:38;24.40;99.90
26947;DHT22;14501;52.282;10.560;2022-10-30T12:40:26;24.40;99.90
26947;DHT22;14501;52.282;10.560;2022-10-30T12:43:09;24.40;99.90
26947;DHT22;14501;52.282;10.560;2022-10-30T12:45:41;24.30;99.90
26947;DHT22;14501;52.282;10.560;2022-10-30T12:54:03;24.20;99.90
26947;DHT22;14501;52.282;10.560;2022-10-30T12:56:32;24.10;99.90
26947;DHT22;14501;52.282;10.560;2022-10-30T12:59:47;24.10;99.90
26947;DHT22;14501;52.282;10.560;2022-10-30T13:01:54;24.00;99.90
26947;DHT22;14501;52.282;10.560;2022-10-30T13:04:35;23.90;99.90
26947;DHT22;14501;52.282;10.560;2022-10-30T13:07:08;23.80;99.90
26947;DHT22;14501;52.282;10.560;2022-10-30T13:09:40;23.70;99.90
26947;DHT22;14501;52.282;10.560;2022-10-30T13:12:15;23.60;99.90
26947;DHT22;14501;52.282;10.560;2022-10-30T13:17:20;23.40;99.90
26947;DHT22;14501;52.282;10.560;2022-10-30T13:19:46;23.20;99.90
26947;DHT22;14501;52.282;10.560;2022-10-30T13:25:02;23.00;99.90
26947;DHT22;14501;52.282;10.560;2022-10-30T13:35:42;22.80;99.90
26947;DHT22;14501;52.282;10.560;2022-10-30T13:44:37;22.50;99.90
26947;DHT22;14501;52.282;10.560;2022-10-30T13:50:08;22.40;99.90
26947;DHT22;14501;52.282;10.560;2022-10-30T13:52:38;22.30;99.90
26947;DHT22;14501;52.282;10.560;2022-10-30T13:55:30;22.30;99.90
26947;DHT22;14501;52.282;10.560;2022-10-30T14:00:57;22.10;99.90
26947;DHT22;14501;52.282;10.560;2022-10-30T14:03:44;22.00;99.90
26947;DHT22;14501;52.282;10.560;2022-10-30T14:06:22;22.00;99.90
26947;DHT22;14501;52.282;10.560;2022-10-30T14:11:41;21.90;99.90
26947;DHT22;14501;52.282;10.560;2022-10-30T14:14:28;21.70;99.90
26947;DHT22;14501;52.282;10.560;2022-10-30T14:17:14;21.60;99.90
26947;DHT22;14501;52.282;10.560;2022-10-30T14:22:31;21.40;99.90
26947;DHT22;14501;52.282;10.560;2022-10-30T14:24:58;21.30;99.90
26947;DHT22;14501;52.282;10.560;2022-10-30T14:27:33;21.30;99.90
26947;DHT22;14501;52.282;10.560;2022-10-30T14:29:59;21.20;99.90
26947;DHT22;14501;52.282;10.560;2022-10-30T14:37:17;20.90;99.90
26947;DHT22;14501;52.282;10.560;2022-10-30T14:40:37;20.80;99.90
26947;DHT22;14501;52.282;10.560;2022-10-30T14:43:25;20.70;99.90
26947;DHT22;14501;52.282;10.560;2022-10-30T14:45:58;20.60;99.90
26947;DHT22;14501;52.282;10.560;2022-10-30T14:51:34;20.50;99.90
26947;DHT22;14501;52.282;10.560;2022-10-30T14:54:15;20.40;99.90
26947;DHT22;14501;52.282;10.560;2022-10-30T14:56:47;20.40;99.90
26947;DHT22;14501;52.282;10.560;2022-10-30T15:12:40;19.20;99.90
26947;DHT22;14501;52.282;10.560;2022-10-30T15:15:14;19.00;99.90
26947;DHT22;14501;52.282;10.560;2022-10-30T15:17:46;18.60;99.90
26947;DHT22;14501;52.282;10.560;2022-10-30T15:22:47;18.40;99.90
26947;DHT22;14501;52.282;10.560;2022-10-30T15:25:25;18.30;99.90
26947;DHT22;14501;52.282;10.560;2022-10-30T15:27:53;18.00;99.90
26947;DHT22;14501;52.282;10.560;2022-10-30T15:30:21;17.90;99.90
26947;DHT22;14501;52.282;10.560;2022-10-30T15:32:47;17.70;99.90
26947;DHT22;14501;52.282;10.560;2022-10-30T15:35:22;17.60;99.90
26947;DHT22;14501;52.282;10.560;2022-10-30T15:38:08;16.90;99.90
26947;DHT22;14501;52.282;10.560;2022-10-30T15:40:36;17.20;99.90
26947;DHT22;14501;52.282;10.560;2022-10-30T15:43:04;17.00;99.90
26947;DHT22;14501;52.282;10.560;2022-10-30T15:45:45;16.90;99.90
26947;DHT22;14501;52.282;10.560;2022-10-30T15:50:52;16.60;99.90
26947;DHT22;14501;52.282;10.560;2022-10-30T15:53:20;16.50;99.90
26947;DHT22;14501;52.282;10.560;2022-10-30T15:55:48;16.20;99.90
26947;DHT22;14501;52.282;10.560;2022-10-30T15:58:16;16.10;99.90
26947;DHT22;14501;52.282;10.560;2022-10-30T16:00:55;16.10;99.90
26947;DHT22;14501;52.282;10.560;2022-10-30T16:03:20;16.00;99.90
26947;DHT22;14501;52.282;10.560;2022-10-30T16:05:46;15.80;99.90
26947;DHT22;14501;52.282;10.560;2022-10-30T16:08:22;15.70;99.90
26947;DHT22;14501;52.282;10.560;2022-10-30T16:10:52;15.60;99.90
26947;DHT22;14501;52.282;10.560;2022-10-30T16:13:22;15.50;99.90
26947;DHT22;14501;52.282;10.560;2022-10-30T16:15:49;15.50;99.90
26947;DHT22;14501;52.282;10.560;2022-10-30T16:18:24;15.30;99.90
26947;DHT22;14501;52.282;10.560;2022-10-30T16:20:53;15.30;99.90
26947;DHT22;14501;52.282;10.560;2022-10-30T16:23:20;15.20;99.90
26947;DHT22;14501;52.282;10.560;2022-10-30T16:25:47;15.20;99.90
26947;DHT22;14501;52.282;10.560;2022-10-30T16:28:28;15.00;99.90
26947;DHT22;14501;52.282;10.560;2022-10-30T16:30:56;15.00;99.90
26947;DHT22;14501;52.282;10.560;2022-10-30T16:33:25;15.00;99.90
26947;DHT22;14501;52.282;10.560;2022-10-30T16:35:51;14.90;99.90
26947;DHT22;14501;52.282;10.560;2022-10-30T16:38:18;14.80;99.90
26947;DHT22;14501;52.282;10.560;2022-10-30T16:40:44;14.80;99.90
26947;DHT22;14501;52.282;10.560;2022-10-30T16:43:30;14.80;99.90
26947;DHT22;14501;52.282;10.560;2022-10-30T16:48:47;14.60;99.90
26947;DHT22;14501;52.282;10.560;2022-10-30T16:51:17;14.60;99.90
26947;DHT22;14501;52.282;10.560;2022-10-30T16:53:52;14.70;99.90
26947;DHT22;14501;52.282;10.560;2022-10-30T16:56:22;14.70;99.90
26947;DHT22;14501;52.282;10.560;2022-10-30T16:58:48;14.70;99.90
26947;DHT22;14501;52.282;10.560;2022-10-30T17:01:15;14.70;99.90
26947;DHT22;14501;52.282;10.560;2022-10-30T17:03:42;14.60;99.90
26947;DHT22;14501;52.282;10.560;2022-10-30T17:08:51;14.60;99.90
26947;DHT22;14501;52.282;10.560;2022-10-30T17:11:19;14.60;99.90
26947;DHT22;14501;52.282;10.560;2022-10-30T17:16:27;14.50;99.90
26947;DHT22;14501;52.282;10.560;2022-10-30T17:18:55;14.60;99.90
26947;DHT22;14501;52.282;10.560;2022-10-30T17:21:28;14.50;99.90
26947;DHT22;14501;52.282;10.560;2022-10-30T17:23:58;14.50;99.90
26947;DHT22;14501;52.282;10.560;2022-10-30T17:26:26;14.50;99.90
26947;DHT22;14501;52.282;10.560;2022-10-30T17:28:52;14.50;99.90
26947;DHT22;14501;52.282;10.560;2022-10-30T17:36:28;14.50;99.90
26947;DHT22;14501;52.282;10.560;2022-10-30T17:38:53;14.50;99.90
26947;DHT22;14501;52.282;10.560;2022-10-30T17:43:50;14.70;99.90
26947;DHT22;14501;52.282;10.560;2022-10-30T17:51:12;14.40;99.90
26947;DHT22;14501;52.282;10.560;2022-10-30T17:53:38;14.40;99.90
26947;DHT22;14501;52.282;10.560;2022-10-30T17:56:11;14.70;99.90
26947;DHT22;14501;52.282;10.560;2022-10-30T17:58:38;14.30;99.90
26947;DHT22;14501;52.282;10.560;2022-10-30T18:01:04;14.30;99.90
26947;DHT22;14501;52.282;10.560;2022-10-30T18:03:29;14.30;99.90
26947;DHT22;14501;52.282;10.560;2022-10-30T18:05:55;14.20;99.90
26947;DHT22;14501;52.282;10.560;2022-10-30T18:08:22;14.30;99.90
26947;DHT22;14501;52.282;10.560;2022-10-30T18:10:49;14.20;99.90
26947;DHT22;14501;52.282;10.560;2022-10-30T18:15:43;13.70;99.90